Time;durP1;ratioP1;P1;durP2;ratioP2;P2;SDS_P1;SDS_P2;PMS_P1;PMS_P2;Temp;Humidity;BMP_temperature;BMP_pressure;BME280_temperature;BME280_humidity;BME280_pressure;Samples;Min_cycle;Max_cycle;Signal;HPM_P1;HPM_P2
2022/02/17 00:00:13;;;;;;;0.95;0.50;;;11.20;99.90;;;;;;5068394;28;20041;-67
2022/02/17 00:02:41;;;;;;;2.53;0.50;;;11.20;99.90;;;;;;5070298;28;20089;-67
2022/02/17 00:05:10;;;;;;;1.10;0.52;;;11.20;99.90;;;;;;5086505;28;20486;-65
2022/02/17 00:07:38;;;;;;;0.70;0.32;;;11.30;99.90;;;;;;5070816;28;20052;-66
2022/02/17 00:10:08;;;;;;;0.73;0.50;;;11.30;99.90;;;;;;5070849;28;20044;-66
2022/02/17 00:12:36;;;;;;;0.50;0.40;;;11.40;99.90;;;;;;5068279;28;20544;-67
2022/02/17 00:15:04;;;;;;;0.98;0.50;;;11.40;99.90;;;;;;5071074;28;20488;-67
2022/02/17 00:17:32;;;;;;;1.25;0.55;;;11.40;99.90;;;;;;5071086;28;20050;-65
2022/02/17 00:19:59;;;;;;;1.08;0.40;;;11.60;99.90;;;;;;5070820;28;20132;-66
2022/02/17 00:22:27;;;;;;;1.75;0.30;;;11.70;99.90;;;;;;5070443;28;20044;-68
2022/02/17 00:24:57;;;;;;;0.40;0.30;;;11.70;99.90;;;;;;5055636;28;20041;-68
2022/02/17 00:27:25;;;;;;;0.32;0.30;;;11.80;99.90;;;;;;5070186;28;20545;-67
2022/02/17 00:29:53;;;;;;;1.90;0.77;;;11.80;99.90;;;;;;5071216;28;20047;-66
2022/02/17 00:32:21;;;;;;;1.15;0.50;;;11.80;99.90;;;;;;5069671;28;20053;-67
2022/02/17 00:34:48;;;;;;;0.50;0.40;;;11.80;99.90;;;;;;5051540;28;20040;-68
2022/02/17 00:37:17;;;;;;;0.38;0.25;;;11.80;99.90;;;;;;5053066;28;20055;-67
2022/02/17 00:39:44;;;;;;;2.38;0.30;;;11.80;99.90;;;;;;5071032;28;20040;-68
2022/02/17 00:42:12;;;;;;;0.45;0.40;;;11.80;99.90;;;;;;5061855;28;20130;-68
2022/02/17 00:44:39;;;;;;;2.72;0.45;;;11.80;99.90;;;;;;5063536;28;20048;-67
2022/02/17 00:47:06;;;;;;;3.10;0.60;;;11.80;99.90;;;;;;5043412;28;20419;-67
2022/02/17 00:49:34;;;;;;;1.75;0.57;;;11.70;99.90;;;;;;5064214;28;20123;-65
2022/02/17 00:52:02;;;;;;;0.57;0.30;;;11.60;99.90;;;;;;5059132;28;20136;-65
2022/02/17 00:54:29;;;;;;;1.45;0.20;;;11.70;99.90;;;;;;5065573;28;20055;-65
2022/02/17 00:56:59;;;;;;;0.88;0.25;;;11.70;99.90;;;;;;5019892;28;20506;-65
2022/02/17 00:59:28;;;;;;;0.45;0.30;;;11.80;99.90;;;;;;5047525;28;20040;-67
2022/02/17 01:01:57;;;;;;;0.30;0.28;;;11.90;99.90;;;;;;5043077;28;20104;-65
2022/02/17 01:04:26;;;;;;;0.22;0.22;;;11.80;99.90;;;;;;5052739;28;20117;-64
2022/02/17 01:06:54;;;;;;;0.30;0.30;;;11.80;99.90;;;;;;5052395;28;20044;-66
2022/02/17 01:09:23;;;;;;;0.28;0.20;;;11.80;99.90;;;;;;5069985;28;20044;-67
2022/02/17 01:11:50;;;;;;;3.30;0.30;;;11.80;99.90;;;;;;5070335;28;20475;-67
2022/02/17 01:14:18;;;;;;;0.65;0.20;;;11.80;99.90;;;;;;5051841;28;20546;-67
2022/02/17 01:16:46;;;;;;;0.47;0.35;;;11.80;99.90;;;;;;5052200;28;20043;-66
2022/02/17 01:19:15;;;;;;;0.45;0.20;;;11.80;99.90;;;;;;5069777;28;20072;-66
2022/02/17 01:21:47;;;;;;;0.75;0.40;;;11.70;99.90;;;;;;5038234;28;20051;-64
2022/02/17 01:24:14;;;;;;;0.13;0.13;;;11.70;99.90;;;;;;5051177;28;20476;-63
2022/02/17 01:26:43;;;;;;;5.18;0.40;;;11.80;99.90;;;;;;5051379;28;20380;-65
2022/02/17 01:29:15;;;;;;;0.20;0.20;;;11.80;99.90;;;;;;5051662;28;20117;-66
2022/02/17 01:31:43;;;;;;;2.28;0.30;;;11.80;99.90;;;;;;5069055;28;20079;-68
2022/02/17 01:34:16;;;;;;;0.43;0.28;;;11.90;99.90;;;;;;5051899;28;20047;-66
2022/02/17 01:36:53;;;;;;;0.35;0.30;;;11.80;99.90;;;;;;5051568;28;20059;-64
2022/02/17 01:39:21;;;;;;;0.80;0.40;;;11.60;99.90;;;;;;5051632;28;20036;-63
2022/02/17 01:41:48;;;;;;;0.52;0.30;;;11.40;99.90;;;;;;5051096;28;20086;-63
2022/02/17 01:44:22;;;;;;;0.40;0.35;;;11.50;99.90;;;;;;5050771;28;20067;-66
2022/02/17 01:46:55;;;;;;;0.45;0.30;;;11.40;99.90;;;;;;5049324;28;20518;-63
2022/02/17 01:49:22;;;;;;;0.85;0.40;;;11.30;99.90;;;;;;5068405;28;20071;-66
2022/02/17 01:51:52;;;;;;;0.47;0.28;;;11.30;99.90;;;;;;5068642;28;20028;-65
2022/02/17 01:54:19;;;;;;;1.95;0.30;;;11.40;99.90;;;;;;5051261;28;20407;-65
2022/02/17 01:56:48;;;;;;;1.45;0.40;;;11.40;99.90;;;;;;5063242;28;20029;-66
2022/02/17 01:59:16;;;;;;;0.47;0.30;;;11.40;99.90;;;;;;5040924;28;20033;-65
2022/02/17 02:01:49;;;;;;;1.45;0.30;;;11.40;99.90;;;;;;5048822;28;20089;-65
2022/02/17 02:04:16;;;;;;;0.80;0.40;;;11.40;99.90;;;;;;5047523;28;20124;-63
2022/02/17 02:06:47;;;;;;;0.30;0.30;;;11.40;99.90;;;;;;5060400;28;20465;-63
2022/02/17 02:09:17;;;;;;;2.22;0.40;;;11.50;99.90;;;;;;5033952;28;20460;-66
2022/02/17 02:12:10;;;;;;;0.65;0.30;;;11.50;99.90;;;;;;5037839;28;20037;-66
2022/02/17 02:14:54;;;;;;;;;;;11.50;99.90;;;;;;5066041;28;20041;-65
2022/02/17 02:17:29;;;;;;;0.13;0.13;;;11.50;99.90;;;;;;5049968;28;20357;-66
2022/02/17 02:19:57;;;;;;;1.38;0.40;;;11.60;99.90;;;;;;5067187;28;20048;-65
2022/02/17 02:22:30;;;;;;;0.30;0.28;;;11.50;99.90;;;;;;5068320;28;20089;-64
2022/02/17 02:24:59;;;;;;;0.20;0.20;;;11.50;99.90;;;;;;5035938;28;20630;-62
2022/02/17 02:27:28;;;;;;;0.70;0.20;;;11.50;99.90;;;;;;5051432;28;20024;-66
2022/02/17 02:29:58;;;;;;;0.20;0.20;;;11.50;99.90;;;;;;5049155;28;20048;-65
2022/02/17 02:32:33;;;;;;;0.30;0.25;;;11.50;99.90;;;;;;5033822;28;20415;-67
2022/02/17 02:35:02;;;;;;;0.45;0.20;;;11.60;99.90;;;;;;5049809;28;20060;-66
2022/02/17 02:37:29;;;;;;;0.20;0.20;;;11.60;99.90;;;;;;5047390;28;20115;-66
2022/02/17 02:39:57;;;;;;;0.55;0.30;;;11.70;99.90;;;;;;5050009;28;20106;-64
2022/02/17 02:42:24;;;;;;;0.38;0.20;;;11.70;99.90;;;;;;5049461;28;20518;-66
2022/02/17 02:44:52;;;;;;;0.22;0.20;;;11.70;99.90;;;;;;5050355;28;20090;-65
2022/02/17 02:47:20;;;;;;;0.47;0.40;;;11.70;99.90;;;;;;5048678;28;20128;-67
2022/02/17 02:49:49;;;;;;;0.45;0.30;;;11.70;99.90;;;;;;5033935;28;20400;-65
2022/02/17 02:52:16;;;;;;;2.33;0.30;;;11.70;99.90;;;;;;5045733;28;20538;-67
2022/02/17 02:54:46;;;;;;;2.03;0.30;;;11.80;99.90;;;;;;5052387;28;20511;-65
2022/02/17 02:57:14;;;;;;;0.20;0.15;;;11.80;99.90;;;;;;5033878;28;20044;-67
2022/02/17 02:59:44;;;;;;;0.35;0.28;;;11.80;99.90;;;;;;5040609;28;20566;-68
2022/02/17 03:02:17;;;;;;;0.35;0.20;;;11.80;99.90;;;;;;5043608;28;20144;-66
2022/02/17 03:04:44;;;;;;;0.20;0.20;;;11.80;99.90;;;;;;5054455;28;20048;-67
2022/02/17 03:07:16;;;;;;;;;;;11.90;99.90;;;;;;5051517;28;20047;-67
2022/02/17 03:09:45;;;;;;;0.17;0.10;;;11.80;99.90;;;;;;5082892;28;19920;-67
2022/02/17 03:12:17;;;;;;;0.22;0.20;;;11.90;99.90;;;;;;5048951;28;20449;-64
2022/02/17 03:14:47;;;;;;;0.30;0.20;;;11.90;99.90;;;;;;5050030;28;20566;-65
2022/02/17 03:17:22;;;;;;;0.65;0.20;;;11.90;99.90;;;;;;5050036;28;20040;-65
2022/02/17 03:19:51;;;;;;;0.22;0.20;;;11.90;99.90;;;;;;5033555;28;20049;-65
2022/02/17 03:22:19;;;;;;;0.40;0.20;;;12.00;99.90;;;;;;5049489;28;20063;-63
2022/02/17 03:24:47;;;;;;;0.20;0.20;;;11.90;99.90;;;;;;5049086;28;20854;-65
2022/02/17 03:27:14;;;;;;;0.20;0.20;;;11.90;99.90;;;;;;5049114;28;20049;-66
2022/02/17 03:29:43;;;;;;;0.20;0.15;;;11.90;99.90;;;;;;5059274;28;20044;-66
2022/02/17 03:32:10;;;;;;;0.20;0.10;;;11.90;99.90;;;;;;5032550;28;20372;-65
2022/02/17 03:34:40;;;;;;;0.98;0.20;;;11.90;99.90;;;;;;5049648;28;20033;-66
2022/02/17 03:37:07;;;;;;;0.20;0.20;;;11.90;99.90;;;;;;5049040;28;20122;-64
2022/02/17 03:39:37;;;;;;;0.47;0.30;;;11.90;99.90;;;;;;5049475;28;20055;-66
2022/02/17 03:42:13;;;;;;;0.52;0.20;;;11.80;99.90;;;;;;5039955;28;20048;-66
2022/02/17 03:44:41;;;;;;;0.30;0.20;;;11.90;99.90;;;;;;5027098;28;20052;-65
2022/02/17 03:47:13;;;;;;;0.32;0.20;;;11.90;99.90;;;;;;5029442;28;20115;-72
2022/02/17 03:50:00;;;;;;;1.15;0.28;;;11.90;99.90;;;;;;5070398;28;20040;-66
2022/02/17 03:52:31;;;;;;;1.92;0.60;;;11.80;99.90;;;;;;5052661;28;20453;-67
2022/02/17 03:55:30;;;;;;;1.73;0.15;;;11.80;99.90;;;;;;5055758;28;20051;-64
2022/02/17 03:57:58;;;;;;;1.38;0.30;;;11.80;99.90;;;;;;5056998;28;20045;-65
2022/02/17 04:00:32;;;;;;;1.70;0.43;;;11.80;99.90;;;;;;5049546;28;20462;-66
2022/02/17 04:03:04;;;;;;;0.35;0.20;;;11.90;99.90;;;;;;5063327;28;20086;-67
2022/02/17 04:05:34;;;;;;;0.35;0.20;;;11.90;99.90;;;;;;5056133;28;20239;-64
2022/02/17 04:08:06;;;;;;;;;;;11.90;99.90;;;;;;5056016;28;20167;-65
2022/02/17 04:10:34;;;;;;;0.20;0.20;;;11.90;99.90;;;;;;5052298;28;20403;-64
2022/02/17 04:13:05;;;;;;;0.57;0.30;;;11.90;99.90;;;;;;5033366;28;20048;-64
2022/02/17 04:15:58;;;;;;;0.65;0.40;;;11.90;99.90;;;;;;5053452;28;20396;-66
2022/02/17 04:18:32;;;;;;;0.65;0.20;;;11.90;99.90;;;;;;5053012;28;20081;-67
2022/02/17 04:21:22;;;;;;;0.35;0.20;;;12.00;99.90;;;;;;5070440;28;20048;-66
2022/02/17 04:24:05;;;;;;;0.38;0.28;;;12.00;99.90;;;;;;5053831;28;20037;-64
2022/02/17 04:26:36;;;;;;;0.52;0.20;;;11.90;99.90;;;;;;5053215;28;20033;-66
2022/02/17 04:29:30;;;;;;;0.25;0.20;;;11.90;99.90;;;;;;5055064;28;20061;-67
2022/02/17 04:32:00;;;;;;;0.47;0.30;;;11.90;99.90;;;;;;5052186;28;20334;-65
2022/02/17 04:34:28;;;;;;;0.65;0.30;;;11.90;99.90;;;;;;5056373;28;20052;-65
2022/02/17 04:37:05;;;;;;;2.25;0.30;;;11.70;99.90;;;;;;5046280;28;20123;-67
2022/02/17 04:39:33;;;;;;;0.80;0.40;;;11.80;99.90;;;;;;5028589;28;20040;-66
2022/02/17 04:42:19;;;;;;;2.30;0.30;;;11.80;99.90;;;;;;5052250;28;20044;-65
2022/02/17 04:45:13;;;;;;;;;;;11.90;99.90;;;;;;5056218;28;20198;-65
2022/02/17 04:47:41;;;;;;;1.27;0.20;;;12.20;99.90;;;;;;5052404;28;19983;-67
2022/02/17 04:50:12;;;;;;;0.50;0.30;;;12.30;99.90;;;;;;5052976;28;20488;-66
2022/02/17 04:52:39;;;;;;;2.97;0.30;;;12.30;99.90;;;;;;5051587;28;20131;-68
2022/02/17 04:55:07;;;;;;;0.82;0.30;;;12.40;99.90;;;;;;5071235;28;20072;-64
2022/02/17 04:57:34;;;;;;;0.65;0.55;;;12.60;99.90;;;;;;5051626;28;20040;-67
2022/02/17 05:00:03;;;;;;;0.20;0.20;;;12.60;99.90;;;;;;5049557;28;20051;-66
2022/02/17 05:02:32;;;;;;;0.65;0.20;;;12.60;99.90;;;;;;5044195;28;20045;-65
2022/02/17 05:05:12;;;;;;;0.20;0.20;;;12.60;99.90;;;;;;5049201;28;20063;-64
2022/02/17 05:07:41;;;;;;;0.28;0.20;;;12.50;99.90;;;;;;5043965;28;20045;-66
2022/02/17 05:10:08;;;;;;;0.75;0.40;;;12.10;99.90;;;;;;5051779;28;20040;-65
2022/02/17 05:12:42;;;;;;;1.30;0.30;;;11.90;99.90;;;;;;5037668;28;20049;-66
2022/02/17 05:15:10;;;;;;;0.88;0.30;;;11.60;99.90;;;;;;5048873;28;20036;-66
2022/02/17 05:17:38;;;;;;;1.30;0.38;;;11.40;99.90;;;;;;5053163;28;20048;-65
2022/02/17 05:20:06;;;;;;;0.73;0.25;;;11.40;99.90;;;;;;5039736;28;20045;-66
2022/02/17 05:22:54;;;;;;;0.20;0.20;;;11.50;99.90;;;;;;5065260;28;20403;-66
2022/02/17 05:26:00;;;;;;;2.47;0.82;;;11.50;99.90;;;;;;5008318;28;20197;-63
2022/02/17 05:28:46;;;;;;;0.50;0.28;;;11.60;99.90;;;;;;4977282;28;20222;-65
2022/02/17 05:31:25;;;;;;;1.40;0.30;;;11.50;99.90;;;;;;4990204;28;20058;-66
2022/02/17 05:34:19;;;;;;;0.65;0.32;;;11.50;99.90;;;;;;4991838;28;20093;-64
2022/02/17 05:37:06;;;;;;;1.35;0.40;;;11.40;99.90;;;;;;4991583;28;20042;-65
2022/02/17 05:40:05;;;;;;;0.98;0.50;;;11.30;99.90;;;;;;4930124;29;20068;-65
2022/02/17 05:42:33;;;;;;;0.73;0.20;;;11.20;99.90;;;;;;4930709;29;20416;-66
2022/02/17 05:45:05;;;;;;;2.88;0.63;;;11.10;99.90;;;;;;4927396;29;20563;-64
2022/02/17 05:47:33;;;;;;;2.35;0.55;;;11.00;99.90;;;;;;4929891;29;20055;-65
2022/02/17 05:50:00;;;;;;;1.58;0.40;;;11.10;99.90;;;;;;4912629;29;20091;-67
2022/02/17 05:52:28;;;;;;;2.42;0.60;;;11.10;99.90;;;;;;4928159;29;20071;-63
2022/02/17 05:54:55;;;;;;;1.25;0.50;;;11.00;99.90;;;;;;4926576;29;20051;-65
2022/02/17 05:57:22;;;;;;;2.30;0.65;;;11.00;99.90;;;;;;4953083;28;20133;-66
2022/02/17 05:59:50;;;;;;;0.55;0.47;;;11.10;99.90;;;;;;4967896;28;20058;-64
2022/02/17 06:02:18;;;;;;;2.10;0.80;;;11.10;99.90;;;;;;4964634;28;20042;-64
2022/02/17 06:04:45;;;;;;;1.65;0.60;;;11.10;99.90;;;;;;4968683;28;20042;-66
2022/02/17 06:07:13;;;;;;;4.50;0.60;;;11.20;99.90;;;;;;4957622;28;20058;-66
2022/02/17 06:09:41;;;;;;;2.03;0.55;;;11.20;99.90;;;;;;4964840;28;20051;-65
2022/02/17 06:12:09;;;;;;;2.35;0.70;;;11.30;99.90;;;;;;4966214;28;20073;-64
2022/02/17 06:14:36;;;;;;;2.28;0.60;;;11.20;99.90;;;;;;4966394;28;20043;-65
2022/02/17 06:17:04;;;;;;;2.95;0.80;;;11.20;99.90;;;;;;5034528;28;20045;-64
2022/02/17 06:19:32;;;;;;;5.05;0.90;;;11.20;99.90;;;;;;5067071;28;20406;-73
2022/02/17 06:21:59;;;;;;;3.92;0.80;;;11.20;99.90;;;;;;5048722;28;20494;-66
2022/02/17 06:24:27;;;;;;;4.07;0.63;;;11.10;99.90;;;;;;5062661;28;20079;-64
2022/02/17 06:26:55;;;;;;;2.78;0.80;;;11.20;99.90;;;;;;5066759;28;20521;-64
2022/02/17 06:29:22;;;;;;;7.65;0.90;;;11.20;99.90;;;;;;5044933;28;20388;-66
2022/02/17 06:31:49;;;;;;;3.80;1.02;;;11.30;99.90;;;;;;5042066;28;20040;-65
2022/02/17 06:34:17;;;;;;;4.05;0.93;;;11.20;99.90;;;;;;5050955;28;20494;-65
2022/02/17 06:36:46;;;;;;;5.30;0.90;;;11.30;99.90;;;;;;5068714;28;20037;-65
2022/02/17 06:39:14;;;;;;;3.70;1.15;;;11.20;99.90;;;;;;5064177;28;20424;-65
2022/02/17 06:41:42;;;;;;;4.47;0.95;;;11.20;99.90;;;;;;5043212;28;20064;-65
2022/02/17 06:44:10;;;;;;;4.78;1.10;;;11.20;99.90;;;;;;5046204;28;20526;-65
2022/02/17 06:46:37;;;;;;;5.35;1.15;;;11.10;99.90;;;;;;5039612;28;20060;-67
2022/02/17 06:49:05;;;;;;;3.80;1.10;;;11.00;99.90;;;;;;5045032;28;20122;-68
2022/02/17 06:51:32;;;;;;;4.45;1.20;;;11.00;99.90;;;;;;5055540;28;20586;-66
2022/02/17 06:54:02;;;;;;;5.93;1.20;;;11.00;99.90;;;;;;5050686;28;20044;-68
2022/02/17 06:56:29;;;;;;;4.93;1.23;;;11.00;99.90;;;;;;5063147;28;20041;-67
2022/02/17 06:58:56;;;;;;;4.50;1.23;;;11.00;99.90;;;;;;5061915;28;20427;-64
2022/02/17 07:01:25;;;;;;;6.45;1.48;;;11.10;99.90;;;;;;5060321;28;20056;-64
2022/02/17 07:03:52;;;;;;;6.97;1.27;;;11.00;99.90;;;;;;5054432;28;20564;-66
2022/02/17 07:06:23;;;;;;;5.85;1.45;;;10.90;99.90;;;;;;5053880;28;20036;-66
2022/02/17 07:08:51;;;;;;;8.70;1.77;;;10.90;99.90;;;;;;5050631;28;20060;-67
2022/02/17 07:11:19;;;;;;;9.98;1.70;;;10.90;99.90;;;;;;5062659;28;20047;-66
2022/02/17 07:13:48;;;;;;;7.30;1.83;;;10.90;99.90;;;;;;5054322;28;20041;-65
2022/02/17 07:16:15;;;;;;;7.60;2.20;;;10.90;99.90;;;;;;5053836;28;20071;-67
2022/02/17 07:18:44;;;;;;;5.43;1.95;;;10.90;99.90;;;;;;5062506;28;20534;-67
2022/02/17 07:21:14;;;;;;;8.13;1.90;;;10.80;99.90;;;;;;5068237;28;20498;-66
2022/02/17 07:23:41;;;;;;;9.57;2.08;;;10.80;99.90;;;;;;5070151;28;20052;-65
2022/02/17 07:26:11;;;;;;;9.32;2.40;;;10.80;99.90;;;;;;5052557;28;20063;-65
2022/02/17 07:28:39;;;;;;;10.02;1.80;;;10.80;99.90;;;;;;5066579;28;20044;-68
2022/02/17 07:31:07;;;;;;;10.15;1.98;;;10.80;99.90;;;;;;5064227;28;20072;-64
2022/02/17 07:33:34;;;;;;;7.18;2.20;;;10.70;99.90;;;;;;5044694;28;20040;-64
2022/02/17 07:36:03;;;;;;;10.68;2.17;;;10.70;99.90;;;;;;5070233;28;20051;-65
2022/02/17 07:38:47;;;;;;;13.00;2.15;;;10.70;99.90;;;;;;5060350;28;20037;-67
2022/02/17 07:41:15;;;;;;;9.63;2.38;;;10.70;99.90;;;;;;5064263;28;20047;-65
2022/02/17 07:43:43;;;;;;;13.10;2.55;;;10.70;99.90;;;;;;5050596;28;20040;-65
2022/02/17 07:46:12;;;;;;;8.85;2.53;;;10.70;99.90;;;;;;5064043;28;20456;-66
2022/02/17 07:48:39;;;;;;;9.30;2.15;;;10.70;99.90;;;;;;5070597;28;20087;-64
2022/02/17 07:51:07;;;;;;;10.88;2.53;;;10.70;99.90;;;;;;5034392;28;20296;-67
2022/02/17 07:53:34;;;;;;;11.32;2.45;;;10.60;99.90;;;;;;5056557;28;20527;-66
2022/02/17 07:56:02;;;;;;;11.18;2.00;;;10.60;99.90;;;;;;5048304;28;20041;-66
2022/02/17 07:58:29;;;;;;;12.32;2.30;;;10.60;99.90;;;;;;5063062;28;20387;-67
2022/02/17 08:00:57;;;;;;;11.73;2.58;;;10.60;99.90;;;;;;5071601;28;20044;-65
2022/02/17 08:03:24;;;;;;;10.23;2.10;;;10.60;99.90;;;;;;5054650;28;20559;-64
2022/02/17 08:05:51;;;;;;;13.13;2.60;;;10.60;99.90;;;;;;5054796;28;20056;-67
2022/02/17 08:08:36;;;;;;;11.93;2.33;;;10.70;99.90;;;;;;5085270;28;20053;-67
2022/02/17 08:11:05;;;;;;;13.18;2.85;;;10.80;99.90;;;;;;5036969;28;20155;-64
2022/02/17 08:13:32;;;;;;;11.93;2.47;;;10.80;99.90;;;;;;5053615;28;20511;-65
2022/02/17 08:15:59;;;;;;;11.43;2.22;;;10.70;99.90;;;;;;5071497;28;20045;-66
2022/02/17 08:18:27;;;;;;;15.20;2.88;;;10.70;99.90;;;;;;5053731;28;20041;-65
2022/02/17 08:20:54;;;;;;;10.60;2.72;;;10.70;99.90;;;;;;5069400;28;20048;-67
2022/02/17 08:23:23;;;;;;;12.65;2.85;;;10.70;99.90;;;;;;5070769;28;20048;-67
2022/02/17 08:25:52;;;;;;;10.77;2.42;;;10.70;99.90;;;;;;5053796;28;20060;-67
2022/02/17 08:28:21;;;;;;;13.00;2.63;;;10.80;99.90;;;;;;5064682;28;20041;-67
2022/02/17 08:30:50;;;;;;;11.45;2.70;;;10.70;99.90;;;;;;5071984;28;20051;-66
2022/02/17 08:33:18;;;;;;;12.50;2.60;;;10.80;99.90;;;;;;5071716;28;20032;-69
2022/02/17 08:35:45;;;;;;;15.07;2.83;;;10.80;99.90;;;;;;5071276;28;20037;-67
2022/02/17 08:38:14;;;;;;;11.85;3.35;;;10.80;99.90;;;;;;5053586;28;20041;-63
2022/02/17 08:40:41;;;;;;;19.27;2.90;;;10.80;99.90;;;;;;5071420;28;20147;-66
2022/02/17 08:43:10;;;;;;;12.02;3.33;;;10.70;99.90;;;;;;5070790;28;20044;-67
2022/02/17 08:45:42;;;;;;;13.02;3.45;;;10.60;99.90;;;;;;5069761;28;20499;-66
2022/02/17 08:48:11;;;;;;;11.43;2.38;;;10.60;99.90;;;;;;5046941;28;20048;-65
2022/02/17 08:50:40;;;;;;;18.95;3.72;;;10.50;99.90;;;;;;5064311;28;20150;-66
2022/02/17 08:53:07;;;;;;;17.23;2.97;;;10.50;99.90;;;;;;5052741;28;20036;-66
2022/02/17 08:55:52;;;;;;;11.52;2.67;;;10.60;99.90;;;;;;5067636;28;20059;-67
2022/02/17 08:58:22;;;;;;;16.98;3.13;;;10.60;99.90;;;;;;5071397;28;20082;-66
2022/02/17 09:00:49;;;;;;;12.43;3.53;;;10.60;99.90;;;;;;5069770;28;20033;-65
2022/02/17 09:03:17;;;;;;;10.77;2.72;;;10.70;99.90;;;;;;5065536;28;20123;-66
2022/02/17 09:05:44;;;;;;;18.45;3.30;;;10.70;99.90;;;;;;5069051;28;20045;-66
2022/02/17 09:08:31;;;;;;;10.57;2.60;;;10.80;99.90;;;;;;5068770;28;20044;-65
2022/02/17 09:10:59;;;;;;;12.88;2.75;;;10.80;99.90;;;;;;5047369;28;20053;-68
2022/02/17 09:13:27;;;;;;;12.02;2.25;;;10.80;99.90;;;;;;5065685;28;20173;-66
2022/02/17 09:15:56;;;;;;;12.45;2.10;;;10.80;99.90;;;;;;5069167;28;20096;-66
2022/02/17 09:18:23;;;;;;;6.10;1.90;;;10.70;99.90;;;;;;5059620;28;20062;-65
2022/02/17 09:20:51;;;;;;;11.40;2.30;;;10.60;99.90;;;;;;5070577;28;20064;-67
2022/02/17 09:23:19;;;;;;;12.43;2.17;;;10.50;99.90;;;;;;5070985;28;20460;-64
2022/02/17 09:25:46;;;;;;;10.75;2.28;;;10.10;99.90;;;;;;5070516;28;20501;-67
2022/02/17 09:28:15;;;;;;;9.88;1.95;;;9.80;99.90;;;;;;5052895;28;20060;-65
2022/02/17 09:30:43;;;;;;;10.00;2.17;;;9.60;99.90;;;;;;5071077;28;20044;-66
2022/02/17 09:33:12;;;;;;;10.30;2.85;;;9.20;99.90;;;;;;5070794;28;20560;-66
2022/02/17 09:35:40;;;;;;;10.02;2.70;;;8.40;99.90;;;;;;5052629;28;20123;-66
2022/02/17 09:38:07;;;;;;;11.68;2.33;;;8.00;99.90;;;;;;5065921;28;20044;-67
2022/02/17 09:40:36;;;;;;;14.07;3.28;;;7.90;99.90;;;;;;5070342;28;20544;-67
2022/02/17 09:43:04;;;;;;;14.05;3.00;;;7.90;99.90;;;;;;5070316;28;20056;-68
2022/02/17 09:45:36;;;;;;;14.85;2.65;;;7.70;99.90;;;;;;5051818;28;20115;-66
2022/02/17 09:48:08;;;;;;;14.65;2.17;;;7.50;99.90;;;;;;5068236;28;20068;-66
2022/02/17 09:50:35;;;;;;;13.70;2.63;;;7.50;99.90;;;;;;5051958;28;20037;-66
2022/02/17 09:53:03;;;;;;;10.32;1.88;;;7.30;99.90;;;;;;5070151;28;20506;-67
2022/02/17 09:55:30;;;;;;;8.57;2.15;;;7.30;99.90;;;;;;5068787;28;20036;-68
2022/02/17 09:57:57;;;;;;;13.43;1.75;;;7.30;99.90;;;;;;5062534;28;20048;-62
2022/02/17 10:00:25;;;;;;;12.27;1.98;;;7.50;99.90;;;;;;5049781;28;20718;-65
2022/02/17 10:02:52;;;;;;;11.02;2.20;;;7.60;99.90;;;;;;5069448;28;20047;-65
2022/02/17 10:05:19;;;;;;;10.02;2.20;;;7.90;99.90;;;;;;5063887;28;20538;-66
2022/02/17 10:07:47;;;;;;;11.60;2.58;;;8.10;99.90;;;;;;5068661;28;20288;-65
2022/02/17 10:10:23;;;;;;;15.23;2.83;;;8.30;99.90;;;;;;5050802;28;20461;-67
2022/02/17 10:13:04;;;;;;;8.90;2.78;;;8.60;99.90;;;;;;5052357;28;20132;-67
2022/02/17 10:15:34;;;;;;;10.82;2.55;;;8.80;99.90;;;;;;5071140;28;20061;-66
2022/02/17 10:18:02;;;;;;;9.60;2.40;;;9.20;99.90;;;;;;5066768;28;20116;-65
2022/02/17 10:20:55;;;;;;;14.13;2.92;;;9.60;99.90;;;;;;5069810;28;20055;-67
2022/02/17 10:23:27;;;;;;;12.95;2.75;;;10.00;99.90;;;;;;5069500;28;20438;-65
2022/02/17 10:25:58;;;;;;;13.45;3.10;;;10.20;99.90;;;;;;5070676;28;20075;-66
2022/02/17 10:28:26;;;;;;;17.23;2.78;;;10.30;99.90;;;;;;5061410;28;20049;-66
2022/02/17 10:30:56;;;;;;;13.38;2.95;;;10.50;99.90;;;;;;5044911;28;20052;-69
2022/02/17 10:33:23;;;;;;;19.50;3.20;;;10.70;99.90;;;;;;5051383;28;20044;-67
2022/02/17 10:35:58;;;;;;;15.48;3.47;;;10.80;99.90;;;;;;5052551;28;20032;-64
2022/02/17 10:38:25;;;;;;;12.50;3.17;;;10.80;99.90;;;;;;5065609;28;20052;-65
2022/02/17 10:40:54;;;;;;;10.20;2.50;;;10.60;99.90;;;;;;5069819;28;20039;-65
2022/02/17 10:43:27;;;;;;;14.68;2.92;;;10.50;99.90;;;;;;5050964;28;20048;-68
2022/02/17 10:46:03;;;;;;;12.15;2.85;;;10.30;99.90;;;;;;5069887;28;20517;-64
2022/02/17 10:48:31;;;;;;;16.85;3.00;;;10.20;99.90;;;;;;5069031;28;20510;-67
2022/02/17 10:51:04;;;;;;;15.65;3.00;;;10.30;99.90;;;;;;5069907;28;20045;-66
2022/02/17 10:53:40;;;;;;;11.30;2.30;;;10.30;99.90;;;;;;5069233;28;20047;-72
2022/02/17 10:56:11;;;;;;;17.08;2.95;;;10.50;99.90;;;;;;5067012;28;20453;-63
2022/02/17 10:58:46;;;;;;;20.17;3.67;;;10.60;99.90;;;;;;5062395;28;20483;-66
2022/02/17 11:01:16;;;;;;;12.57;3.20;;;10.60;99.90;;;;;;5068082;28;20503;-67
2022/02/17 11:03:44;;;;;;;10.73;3.03;;;10.80;99.90;;;;;;5060368;28;20040;-67
2022/02/17 11:06:13;;;;;;;14.50;2.80;;;11.00;99.90;;;;;;5071132;28;20056;-67
2022/02/17 11:08:43;;;;;;;12.75;3.40;;;11.10;99.90;;;;;;5072062;28;20041;-65
2022/02/17 11:11:13;;;;;;;15.55;2.88;;;11.10;99.90;;;;;;5072356;28;20045;-66
2022/02/17 11:13:49;;;;;;;15.82;3.05;;;11.00;99.90;;;;;;5048788;28;20072;-65
2022/02/17 11:16:22;;;;;;;18.70;3.75;;;10.90;99.90;;;;;;5072765;28;20143;-64
2022/02/17 11:18:54;;;;;;;18.70;3.58;;;10.90;99.90;;;;;;5073480;28;20032;-66
2022/02/17 11:21:22;;;;;;;16.20;3.20;;;10.80;99.90;;;;;;5037514;28;20052;-66
2022/02/17 11:23:56;;;;;;;19.45;4.45;;;10.60;99.90;;;;;;5055525;28;20080;-65
2022/02/17 11:26:28;;;;;;;15.55;3.63;;;10.50;99.90;;;;;;5071618;28;20403;-64
2022/02/17 11:29:17;;;;;;;14.27;3.03;;;9.60;99.90;;;;;;5073551;28;20037;-66
2022/02/17 11:32:05;;;;;;;15.18;3.47;;;9.00;99.90;;;;;;5044428;28;20508;-66
2022/02/17 11:34:46;;;;;;;14.48;3.97;;;8.70;99.90;;;;;;5073067;28;20495;-65
2022/02/17 11:37:29;;;;;;;17.05;2.92;;;8.60;99.90;;;;;;5073773;28;20044;-65
2022/02/17 11:40:03;;;;;;;17.00;3.28;;;8.40;99.90;;;;;;5071265;28;20163;-67
2022/02/17 11:42:38;;;;;;;17.45;2.90;;;8.30;99.90;;;;;;5066401;28;20128;-69
2022/02/17 11:45:22;;;;;;;15.45;3.13;;;8.10;99.90;;;;;;5071277;28;20503;-65
2022/02/17 11:48:02;;;;;;;14.50;2.78;;;8.00;99.90;;;;;;5065311;28;20435;-65
2022/02/17 11:50:32;;;;;;;19.20;3.13;;;8.10;99.90;;;;;;5070847;28;20093;-65
2022/02/17 11:53:21;;;;;;;9.90;2.63;;;8.20;99.90;;;;;;5052376;28;20048;-66
2022/02/17 11:55:49;;;;;;;16.05;2.78;;;8.40;99.90;;;;;;5058160;28;20052;-66
2022/02/17 11:58:38;;;;;;;14.38;2.42;;;8.60;99.90;;;;;;5062412;28;20482;-63
2022/02/17 12:01:24;;;;;;;13.38;2.15;;;8.80;99.90;;;;;;5069579;28;20131;-67
2022/02/17 12:04:09;;;;;;;8.18;2.42;;;8.90;99.90;;;;;;5069230;28;20124;-65
2022/02/17 12:07:01;;;;;;;10.13;1.85;;;9.00;99.90;;;;;;5070127;28;20049;-67
2022/02/17 12:09:39;;;;;;;;;;;8.90;99.90;;;;;;5071750;28;20056;-67
2022/02/17 12:12:26;;;;;;;6.25;1.60;;;9.20;99.90;;;;;;5065309;28;19932;-65
2022/02/17 12:15:05;;;;;;;8.80;2.50;;;9.50;99.90;;;;;;5072319;28;20131;-67
2022/02/17 12:17:38;;;;;;;8.95;1.58;;;9.50;99.90;;;;;;5052046;28;20451;-65
2022/02/17 12:20:19;;;;;;;8.07;1.80;;;10.00;99.90;;;;;;5068062;28;20070;-67
2022/02/17 12:23:02;;;;;;;7.45;1.85;;;10.30;99.90;;;;;;5072060;28;20415;-66
2022/02/17 12:25:32;;;;;;;12.95;2.53;;;10.20;99.90;;;;;;5072244;28;20068;-67
2022/02/17 12:28:02;;;;;;;11.45;2.10;;;10.10;99.90;;;;;;5070358;28;20050;-66
2022/02/17 12:30:38;;;;;;;12.75;3.00;;;10.00;99.90;;;;;;5065947;28;20059;-67
2022/02/17 12:33:08;;;;;;;9.18;2.92;;;10.10;99.90;;;;;;5070897;28;20040;-68
2022/02/17 12:35:37;;;;;;;13.38;2.40;;;9.90;99.90;;;;;;5072188;28;20048;-65
2022/02/17 12:38:12;;;;;;;13.13;2.88;;;9.90;99.90;;;;;;5069620;28;20044;-67
2022/02/17 12:40:41;;;;;;;10.10;2.40;;;9.70;99.90;;;;;;5044194;28;20040;-64
2022/02/17 12:43:10;;;;;;;11.73;2.85;;;9.50;99.90;;;;;;5070406;28;20110;-67
2022/02/17 12:45:47;;;;;;;16.17;3.30;;;9.30;99.90;;;;;;5063990;28;20036;-68
2022/02/17 12:48:16;;;;;;;18.83;3.70;;;9.20;99.90;;;;;;5060603;28;20060;-65
2022/02/17 12:51:04;;;;;;;15.27;3.10;;;9.00;99.90;;;;;;5058365;28;20044;-66
2022/02/17 12:53:47;;;;;;;19.20;4.28;;;8.80;99.90;;;;;;5063967;28;20067;-64
2022/02/17 12:56:23;;;;;;;16.77;2.80;;;8.40;99.90;;;;;;5070328;28;20124;-68
2022/02/17 12:58:51;;;;;;;19.63;3.63;;;8.20;99.90;;;;;;5068606;28;20115;-68
2022/02/17 13:01:26;;;;;;;15.88;3.03;;;7.90;99.90;;;;;;5052073;28;20045;-66
2022/02/17 13:03:57;;;;;;;13.13;2.85;;;7.80;99.90;;;;;;5064568;28;20534;-65
2022/02/17 13:06:26;;;;;;;8.60;2.45;;;7.70;99.90;;;;;;5070830;28;20044;-66